Kayjay, Kentucky
Current Conditions -  °F | °C
As of 7:53 AM on Wednesday 22 Oct 2014 (Local Time) from KLOZ Reporting Station
Few Clouds Few Clouds  
Wind Chill: 42°   Ceiling: Unl
Heat Index: 42°   Visibility: 10mi
Dew Point: 37°   Wind: 3mph
Humidity: 82%   Direction: 360°N
Pressure: 30.22"   Gusts: NA
Location:  36.865°N, 83.9507°W
Report Text: KLOZ 221153Z AUTO 36003KT 10SM FEW031 06/03 A3022 RMK AO2 SLP233 T00560028 10094 20050 53019
Loading
Personal Weather Stations






























Interactive Weather Map
Tropical Storm Tracking
New forecast layout! Learn more

10-Day Weather Forecast

Advertisements
Track Severe Weather on mobile